Time;durP1;ratioP1;P1;durP2;ratioP2;P2;SDS_P1;SDS_P2;PMS_P1;PMS_P2;Temp;Humidity;BMP_temperature;BMP_pressure;BME280_temperature;BME280_humidity;BME280_pressure;Samples;Min_cycle;Max_cycle;Signal;HPM_P1;HPM_P2
2022/11/26 00:01:32;;;;;;;19.85;6.18;;;7.10;87.30;;;;;;9179565;19;20051;-68
2022/11/26 00:04:36;;;;;;;18.95;6.95;;;7.20;87.40;;;;;;9181788;19;20480;-68
2022/11/26 00:07:42;;;;;;;25.10;7.65;;;7.10;87.30;;;;;;9175642;19;20014;-69
2022/11/26 00:10:50;;;;;;;21.08;7.75;;;7.10;87.30;;;;;;9181670;19;20030;-68
2022/11/26 00:13:54;;;;;;;22.67;7.90;;;7.10;87.30;;;;;;9179714;19;20463;-68
2022/11/26 00:16:57;;;;;;;;;;;7.10;87.30;;;;;;9182298;19;20022;-68
2022/11/26 00:20:01;;;;;;;16.10;6.97;;;7.10;87.40;;;;;;9181148;19;19926;-68
2022/11/26 00:23:06;;;;;;;25.05;7.10;;;7.10;87.30;;;;;;9176396;19;20067;-68
2022/11/26 00:26:15;;;;;;;22.77;7.55;;;7.00;87.30;;;;;;9177922;19;20015;-68
2022/11/26 00:29:19;;;;;;;22.13;7.47;;;7.00;87.30;;;;;;9177615;19;20055;-68
2022/11/26 00:32:25;;;;;;;18.48;7.63;;;7.00;87.40;;;;;;9180150;19;20108;-68
2022/11/26 00:35:29;;;;;;;20.17;7.65;;;7.00;87.40;;;;;;9180221;19;20018;-69
2022/11/26 00:38:33;;;;;;;25.08;7.45;;;7.00;87.40;;;;;;9176934;19;20018;-69
2022/11/26 00:41:39;;;;;;;;;;;7.00;87.40;;;;;;9181828;19;20018;-69
2022/11/26 00:44:43;;;;;;;31.27;8.05;;;7.00;87.50;;;;;;9180311;19;19915;-69
2022/11/26 00:47:47;;;;;;;19.75;7.78;;;7.00;87.90;;;;;;9175060;19;20022;-69
2022/11/26 00:50:52;;;;;;;;;;;7.00;87.40;;;;;;9180836;19;20384;-68
2022/11/26 00:53:59;;;;;;;24.80;7.10;;;6.90;87.40;;;;;;9178549;19;19936;-68
2022/11/26 00:57:05;;;;;;;23.30;7.25;;;6.90;87.30;;;;;;9179728;19;20018;-69
2022/11/26 01:00:16;;;;;;;19.52;7.57;;;6.90;87.40;;;;;;9178663;19;20027;-68
2022/11/26 01:03:20;;;;;;;25.27;7.65;;;6.90;87.40;;;;;;9178544;19;20471;-68
2022/11/26 01:06:25;;;;;;;;;;;6.90;87.50;;;;;;9176581;19;20034;-68
2022/11/26 01:09:29;;;;;;;20.77;6.88;;;6.90;87.50;;;;;;9179509;19;19931;-68
2022/11/26 01:12:35;;;;;;;18.40;7.07;;;6.80;87.30;;;;;;9177173;19;20018;-68
2022/11/26 01:15:40;;;;;;;15.63;7.30;;;6.80;87.40;;;;;;9179596;19;20014;-68
2022/11/26 01:18:44;;;;;;;24.17;8.05;;;6.80;87.50;;;;;;9177457;19;20609;-68
2022/11/26 01:21:48;;;;;;;20.27;7.30;;;6.80;87.50;;;;;;9176534;19;20014;-68
2022/11/26 01:24:51;;;;;;;22.90;7.90;;;6.80;87.50;;;;;;9173539;19;20057;-68
2022/11/26 01:27:57;;;;;;;20.65;8.32;;;6.80;87.60;;;;;;9175297;19;20047;-68
2022/11/26 01:31:01;;;;;;;23.90;7.68;;;6.80;87.60;;;;;;9178119;19;20015;-68
2022/11/26 01:34:05;;;;;;;27.38;7.80;;;6.70;87.50;;;;;;9178591;19;20018;-68
2022/11/26 01:37:13;;;;;;;25.55;7.20;;;6.80;87.60;;;;;;9176616;19;20018;-69
2022/11/26 01:40:32;;;;;;;21.83;7.47;;;6.70;87.50;;;;;;9177635;19;20415;-69
2022/11/26 01:43:41;;;;;;;22.95;7.63;;;6.70;87.60;;;;;;9178377;19;20356;-69
2022/11/26 01:46:45;;;;;;;23.92;7.72;;;6.70;87.60;;;;;;9176550;19;20023;-69
2022/11/26 01:50:18;;;;;;;21.45;6.70;;;6.70;87.60;;;;;;9177448;19;20180;-69
2022/11/26 01:53:44;;;;;;;16.85;7.10;;;6.70;87.70;;;;;;9174168;19;20014;-68
2022/11/26 01:56:51;;;;;;;14.25;7.18;;;6.70;87.60;;;;;;9178333;19;20114;-68
2022/11/26 02:00:00;;;;;;;16.13;7.10;;;6.70;87.60;;;;;;9176592;19;20352;-69
2022/11/26 02:03:05;;;;;;;19.30;6.60;;;6.70;87.60;;;;;;9175639;19;20023;-68
2022/11/26 02:06:14;;;;;;;21.27;8.05;;;6.60;87.60;;;;;;9175021;19;20023;-68
2022/11/26 02:09:19;;;;;;;22.38;7.45;;;6.60;87.60;;;;;;9178044;19;20014;-68
2022/11/26 02:12:23;;;;;;;19.58;7.55;;;6.60;87.70;;;;;;9175159;19;20021;-68
2022/11/26 02:15:37;;;;;;;15.73;7.28;;;6.60;87.70;;;;;;9175081;19;20024;-69
2022/11/26 02:18:47;;;;;;;31.83;7.20;;;6.60;87.70;;;;;;9175446;19;20049;-69
2022/11/26 02:22:05;;;;;;;29.63;8.90;;;6.60;87.70;;;;;;9177014;19;20014;-68
2022/11/26 02:25:19;;;;;;;19.23;7.80;;;6.50;87.70;;;;;;9172412;19;20023;-68
2022/11/26 02:28:48;;;;;;;17.83;7.90;;;6.50;87.70;;;;;;9172640;19;20667;-68
2022/11/26 02:32:01;;;;;;;20.80;7.93;;;6.50;87.70;;;;;;9175767;19;20490;-68
2022/11/26 02:35:11;;;;;;;19.83;8.38;;;6.50;87.70;;;;;;9173972;19;20021;-68
2022/11/26 02:38:20;;;;;;;19.42;8.05;;;6.50;87.70;;;;;;9176237;19;20019;-68
2022/11/26 02:41:23;;;;;;;29.30;8.75;;;6.50;87.80;;;;;;9176339;19;20373;-68
2022/11/26 02:44:31;;;;;;;16.25;7.70;;;6.50;87.90;;;;;;9175752;19;20015;-68
2022/11/26 02:47:39;;;;;;;13.35;7.75;;;6.50;87.80;;;;;;9171618;19;20368;-68
2022/11/26 02:50:47;;;;;;;16.73;8.60;;;6.50;87.80;;;;;;9175048;19;20046;-68
2022/11/26 02:53:52;;;;;;;16.95;8.18;;;6.50;87.90;;;;;;9175384;19;20019;-69
2022/11/26 02:56:58;;;;;;;15.63;8.82;;;6.40;87.80;;;;;;9173276;19;20090;-68
2022/11/26 03:00:03;;;;;;;15.82;7.80;;;6.50;87.90;;;;;;9175341;19;20058;-68
2022/11/26 03:03:21;;;;;;;14.85;8.13;;;6.50;88.00;;;;;;9177035;19;20471;-68
2022/11/26 03:06:28;;;;;;;15.55;8.27;;;6.50;87.90;;;;;;9180933;19;20502;-69
2022/11/26 03:09:40;;;;;;;15.90;9.10;;;6.50;87.90;;;;;;9183293;19;20391;-68
2022/11/26 03:12:44;;;;;;;17.63;8.65;;;6.50;88.00;;;;;;9182725;19;20014;-68
2022/11/26 03:15:48;;;;;;;14.25;8.40;;;6.50;88.00;;;;;;9183528;19;20051;-68
2022/11/26 03:18:53;;;;;;;18.30;9.23;;;6.50;88.00;;;;;;9182994;19;20025;-68
2022/11/26 03:21:57;;;;;;;15.50;8.60;;;6.50;88.00;;;;;;9182854;19;20475;-69
2022/11/26 03:25:01;;;;;;;19.50;9.75;;;6.50;88.00;;;;;;9177176;19;20019;-70
2022/11/26 03:28:05;;;;;;;;;;;6.50;88.00;;;;;;9179230;19;20019;-68
2022/11/26 03:31:09;;;;;;;54.22;9.10;;;6.50;88.00;;;;;;9179902;19;20351;-67
2022/11/26 03:34:15;;;;;;;;;;;6.50;88.00;;;;;;9180880;19;20023;-68
2022/11/26 03:37:19;;;;;;;16.80;9.05;;;6.50;87.90;;;;;;9182398;19;19943;-69
2022/11/26 03:40:23;;;;;;;18.73;9.23;;;6.50;87.80;;;;;;9182253;19;20014;-69
2022/11/26 03:43:27;;;;;;;;;;;6.50;87.90;;;;;;9182665;19;20029;-68
2022/11/26 03:46:30;;;;;;;13.93;8.83;;;6.50;88.00;;;;;;9179190;19;20421;-68
2022/11/26 03:49:36;;;;;;;;;;;6.50;87.90;;;;;;9182808;19;20763;-68
2022/11/26 03:52:40;;;;;;;16.23;9.00;;;6.50;87.90;;;;;;9178677;19;19919;-68
2022/11/26 03:55:44;;;;;;;21.27;9.70;;;6.50;87.90;;;;;;9179548;19;20396;-69
2022/11/26 03:58:47;;;;;;;;;;;6.50;87.90;;;;;;9183440;19;20364;-68
2022/11/26 04:01:51;;;;;;;18.65;7.07;;;6.50;88.00;;;;;;9182713;19;20648;-68
2022/11/26 04:04:57;;;;;;;20.42;9.65;;;6.50;87.90;;;;;;9180238;19;20024;-68
2022/11/26 04:08:01;;;;;;;18.25;9.27;;;6.50;87.90;;;;;;9179506;19;20021;-69
2022/11/26 04:11:05;;;;;;;22.45;10.18;;;6.50;88.00;;;;;;9181649;19;20014;-68
2022/11/26 04:14:08;;;;;;;;;;;6.50;88.00;;;;;;9179666;19;20018;-68
2022/11/26 04:17:12;;;;;;;20.00;9.40;;;6.50;88.00;;;;;;9180960;19;19926;-68
2022/11/26 04:20:17;;;;;;;;;;;6.50;87.90;;;;;;9180796;19;20021;-68
2022/11/26 04:23:22;;;;;;;26.98;9.90;;;6.50;87.90;;;;;;9177448;19;19929;-69
2022/11/26 04:26:25;;;;;;;23.80;11.32;;;6.50;87.80;;;;;;9179213;19;20018;-69
2022/11/26 04:29:29;;;;;;;;;;;6.60;88.00;;;;;;9182345;19;20527;-68
2022/11/26 04:32:33;;;;;;;24.77;11.45;;;6.60;88.00;;;;;;9180955;19;19918;-69
2022/11/26 04:35:39;;;;;;;28.20;11.90;;;6.60;87.90;;;;;;9179855;19;20020;-68
2022/11/26 04:38:43;;;;;;;28.90;11.25;;;6.60;88.00;;;;;;9180146;19;20011;-68
2022/11/26 04:41:47;;;;;;;27.48;11.55;;;6.60;88.00;;;;;;9178903;19;20042;-68
2022/11/26 04:44:51;;;;;;;28.17;11.93;;;6.60;88.10;;;;;;9178217;19;20037;-69
2022/11/26 04:47:55;;;;;;;28.23;10.90;;;6.50;88.00;;;;;;9178544;19;20015;-69
2022/11/26 04:51:00;;;;;;;34.30;13.75;;;6.60;88.10;;;;;;9176958;19;20028;-69
2022/11/26 04:54:04;;;;;;;33.45;12.50;;;6.60;88.20;;;;;;9180605;19;20035;-68
2022/11/26 04:57:16;;;;;;;32.08;12.43;;;6.60;88.10;;;;;;9179843;19;20022;-68
2022/11/26 05:00:21;;;;;;;26.92;12.85;;;6.60;88.20;;;;;;9177081;19;20054;-69
2022/11/26 05:03:24;;;;;;;25.83;12.27;;;6.60;88.20;;;;;;9179385;19;20042;-68
2022/11/26 05:06:30;;;;;;;;;;;6.60;88.20;;;;;;9179682;19;20029;-68
2022/11/26 05:09:34;;;;;;;36.38;13.70;;;6.60;88.20;;;;;;9179159;19;19922;-69
2022/11/26 05:12:38;;;;;;;33.08;12.80;;;6.50;88.00;;;;;;9179943;19;20019;-69
2022/11/26 05:15:42;;;;;;;28.85;11.98;;;6.50;88.10;;;;;;9179818;19;20492;-68
2022/11/26 05:18:45;;;;;;;23.92;13.25;;;6.50;88.10;;;;;;9179123;19;20026;-69
2022/11/26 05:21:51;;;;;;;37.65;14.18;;;6.50;88.20;;;;;;9178568;19;20025;-68
2022/11/26 05:24:55;;;;;;;43.35;14.55;;;6.50;88.20;;;;;;9172926;19;20029;-68
2022/11/26 05:27:58;;;;;;;;;;;6.50;88.20;;;;;;9175167;19;20082;-68
2022/11/26 05:31:04;;;;;;;30.52;13.38;;;6.50;88.20;;;;;;9178753;19;19934;-68
2022/11/26 05:34:07;;;;;;;41.55;14.63;;;6.50;88.10;;;;;;9178790;19;20021;-69
2022/11/26 05:37:13;;;;;;;39.80;14.35;;;6.50;88.20;;;;;;9178562;19;20010;-68
2022/11/26 05:40:17;;;;;;;32.97;13.52;;;6.50;88.20;;;;;;9176839;19;20477;-69
2022/11/26 05:43:21;;;;;;;33.42;14.18;;;6.50;88.30;;;;;;9178941;19;20018;-69
2022/11/26 05:46:25;;;;;;;;;;;6.50;88.30;;;;;;9176093;19;20378;-68
2022/11/26 05:49:29;;;;;;;41.90;14.65;;;6.50;88.30;;;;;;9178230;19;19975;-68
2022/11/26 05:52:35;;;;;;;46.92;16.35;;;6.50;88.20;;;;;;9175640;19;20396;-68
2022/11/26 05:55:38;;;;;;;32.00;14.13;;;6.50;88.20;;;;;;9173884;19;20019;-69
2022/11/26 05:58:43;;;;;;;;;;;6.50;88.30;;;;;;9178090;19;20486;-69
2022/11/26 06:01:47;;;;;;;37.05;15.25;;;6.50;88.30;;;;;;9175998;19;19948;-69
2022/11/26 06:04:50;;;;;;;40.70;15.13;;;6.50;88.10;;;;;;9173323;19;20507;-68
2022/11/26 06:07:56;;;;;;;31.00;14.88;;;6.50;88.20;;;;;;9167575;19;20046;-68
2022/11/26 06:11:00;;;;;;;36.33;15.73;;;6.50;88.30;;;;;;9173208;19;20081;-68
2022/11/26 06:14:04;;;;;;;39.30;16.33;;;6.50;88.30;;;;;;9171805;19;20026;-68
2022/11/26 06:17:07;;;;;;;44.65;16.10;;;6.50;88.30;;;;;;9174449;19;20015;-69
2022/11/26 06:20:13;;;;;;;35.47;15.55;;;6.50;88.30;;;;;;9170875;19;20047;-68
2022/11/26 06:23:19;;;;;;;39.47;17.33;;;6.50;88.30;;;;;;9163669;19;20355;-68
2022/11/26 06:26:23;;;;;;;42.58;16.17;;;6.50;88.30;;;;;;9171770;19;20119;-69
2022/11/26 06:29:26;;;;;;;47.65;17.30;;;6.50;88.40;;;;;;9174762;19;20045;-68
2022/11/26 06:32:32;;;;;;;42.80;15.30;;;6.50;88.40;;;;;;9174111;19;20134;-69
2022/11/26 06:35:36;;;;;;;40.00;16.73;;;6.50;88.40;;;;;;9175214;19;20022;-69
2022/11/26 06:38:41;;;;;;;40.78;14.85;;;6.50;88.40;;;;;;9175840;19;20042;-69
2022/11/26 06:41:45;;;;;;;39.83;15.05;;;6.50;88.40;;;;;;9172706;19;20015;-68
2022/11/26 06:44:49;;;;;;;41.63;15.60;;;6.50;88.40;;;;;;9174831;19;20026;-69
2022/11/26 06:47:53;;;;;;;36.83;17.33;;;6.50;88.40;;;;;;9173545;19;20510;-69
2022/11/26 06:50:58;;;;;;;39.88;15.70;;;6.50;88.50;;;;;;9172488;19;20051;-68
2022/11/26 06:54:03;;;;;;;41.88;16.33;;;6.50;88.50;;;;;;9174873;19;20384;-69
2022/11/26 06:57:07;;;;;;;40.63;15.27;;;6.50;88.50;;;;;;9173749;19;20019;-68
2022/11/26 07:00:12;;;;;;;38.33;15.35;;;6.50;88.50;;;;;;9175122;19;20370;-68
2022/11/26 07:03:16;;;;;;;32.20;15.48;;;6.50;88.50;;;;;;9172954;19;20033;-68
2022/11/26 07:06:29;;;;;;;45.33;16.17;;;6.50;88.50;;;;;;9174327;19;20028;-69
2022/11/26 07:09:35;;;;;;;34.35;14.98;;;6.50;88.50;;;;;;9174458;19;20018;-70
2022/11/26 07:12:38;;;;;;;51.17;15.55;;;6.50;88.50;;;;;;9173869;19;20015;-68
2022/11/26 07:15:42;;;;;;;45.55;16.08;;;6.50;88.50;;;;;;9174228;19;20026;-68
2022/11/26 07:18:49;;;;;;;46.25;16.05;;;6.50;88.50;;;;;;9174631;19;20022;-69
2022/11/26 07:21:53;;;;;;;39.28;14.57;;;6.50;88.50;;;;;;9174274;19;20035;-68
2022/11/26 07:24:59;;;;;;;41.72;15.05;;;6.50;88.50;;;;;;9169067;19;20041;-69
2022/11/26 07:28:02;;;;;;;36.63;14.55;;;6.50;88.50;;;;;;9172816;19;20056;-69
2022/11/26 07:31:09;;;;;;;37.25;14.05;;;6.50;88.50;;;;;;9173938;19;20014;-68
2022/11/26 07:34:19;;;;;;;37.60;18.45;;;6.50;88.60;;;;;;9174321;19;20014;-69
2022/11/26 07:37:23;;;;;;;;;;;6.50;88.50;;;;;;9173589;19;20029;-68
2022/11/26 07:40:29;;;;;;;28.98;13.52;;;6.50;88.50;;;;;;9174872;19;19930;-69
2022/11/26 07:43:34;;;;;;;32.30;14.45;;;6.50;88.50;;;;;;9171912;19;20015;-69
2022/11/26 07:46:38;;;;;;;33.28;13.90;;;6.50;88.50;;;;;;9172502;19;20015;-68
2022/11/26 07:49:42;;;;;;;;;;;6.50;88.60;;;;;;9177942;19;20022;-69
2022/11/26 07:52:46;;;;;;;31.20;14.10;;;6.50;88.60;;;;;;9181167;19;20387;-69
2022/11/26 07:55:51;;;;;;;25.15;12.18;;;6.50;88.50;;;;;;9181631;19;20026;-69
2022/11/26 07:58:56;;;;;;;31.38;14.60;;;6.50;88.60;;;;;;9179484;19;20042;-69
2022/11/26 08:01:59;;;;;;;38.13;14.48;;;6.50;88.60;;;;;;9180801;19;20022;-69
2022/11/26 08:05:03;;;;;;;;;;;6.50;88.60;;;;;;9182526;19;20074;-68
2022/11/26 08:08:07;;;;;;;33.65;14.82;;;6.50;88.60;;;;;;9177309;19;19955;-69
2022/11/26 08:11:16;;;;;;;28.15;14.68;;;6.50;88.50;;;;;;9181184;19;20086;-69
2022/11/26 08:14:20;;;;;;;34.20;15.15;;;6.50;88.60;;;;;;9181394;19;20021;-69
2022/11/26 08:17:24;;;;;;;37.30;17.67;;;6.50;88.60;;;;;;9179413;19;20104;-69
2022/11/26 08:20:27;;;;;;;37.30;17.45;;;6.50;88.60;;;;;;9178908;19;20030;-69
2022/11/26 08:23:33;;;;;;;48.20;20.70;;;6.50;88.70;;;;;;9175393;19;20025;-69
2022/11/26 08:26:39;;;;;;;38.50;17.92;;;6.50;88.70;;;;;;9178190;19;20018;-68
2022/11/26 08:29:47;;;;;;;53.22;18.73;;;6.60;88.80;;;;;;9180562;19;20036;-69
2022/11/26 08:32:51;;;;;;;40.75;17.10;;;6.50;88.70;;;;;;9180602;19;20475;-69
2022/11/26 08:35:55;;;;;;;36.25;16.42;;;6.60;88.80;;;;;;9177196;19;20022;-69
2022/11/26 08:39:13;;;;;;;41.00;18.80;;;6.60;88.80;;;;;;9178296;19;20820;-69
2022/11/26 08:42:19;;;;;;;46.20;18.20;;;6.60;88.80;;;;;;9180172;19;20022;-69
2022/11/26 08:45:22;;;;;;;47.50;18.10;;;6.70;88.90;;;;;;9178868;19;20033;-69
2022/11/26 08:48:28;;;;;;;39.33;17.92;;;6.70;88.90;;;;;;9177025;19;20006;-69
2022/11/26 08:51:35;;;;;;;40.47;18.27;;;6.70;88.90;;;;;;9179148;19;20175;-69
2022/11/26 08:54:38;;;;;;;;;;;6.70;88.90;;;;;;9179925;19;20551;-69
2022/11/26 08:57:50;;;;;;;44.80;17.20;;;6.80;88.90;;;;;;9178337;19;19919;-68
2022/11/26 09:00:54;;;;;;;44.25;20.15;;;6.80;88.80;;;;;;9179195;19;20015;-68
2022/11/26 09:03:58;;;;;;;;;;;6.80;88.80;;;;;;9177635;19;20022;-68
2022/11/26 09:07:02;;;;;;;51.88;18.08;;;6.80;88.80;;;;;;9175628;19;19923;-70
2022/11/26 09:10:07;;;;;;;45.63;17.75;;;6.80;88.70;;;;;;9176042;19;20014;-68
2022/11/26 09:13:13;;;;;;;45.40;20.38;;;6.80;89.40;;;;;;9177745;19;20524;-69
2022/11/26 09:16:23;;;;;;;51.85;18.77;;;6.80;88.80;;;;;;9174302;19;20021;-69
2022/11/26 09:19:28;;;;;;;46.60;19.00;;;6.80;88.90;;;;;;9176183;19;20117;-69
2022/11/26 09:22:32;;;;;;;48.53;19.20;;;6.90;89.00;;;;;;9170254;19;20021;-69
2022/11/26 09:25:39;;;;;;;49.50;20.35;;;6.90;89.00;;;;;;9175037;19;20014;-69
2022/11/26 09:28:45;;;;;;;55.92;20.67;;;6.90;89.00;;;;;;9175767;19;20062;-69
2022/11/26 09:31:50;;;;;;;54.05;22.13;;;6.90;89.00;;;;;;9173759;19;20014;-69
2022/11/26 09:35:14;;;;;;;62.00;23.60;;;7.00;89.10;;;;;;9177665;19;20023;-69
2022/11/26 09:38:17;;;;;;;57.15;20.98;;;7.00;89.10;;;;;;9175644;19;20029;-69
2022/11/26 09:41:36;;;;;;;64.80;22.73;;;7.10;89.10;;;;;;9174921;19;20042;-68
2022/11/26 09:44:56;;;;;;;60.00;21.35;;;7.10;89.20;;;;;;9177067;19;20011;-69
2022/11/26 09:48:01;;;;;;;63.35;23.25;;;7.10;89.20;;;;;;9173907;19;20736;-69
2022/11/26 09:51:10;;;;;;;62.33;23.67;;;7.10;89.10;;;;;;9176515;19;20017;-69
2022/11/26 09:54:18;;;;;;;56.25;21.20;;;7.20;89.20;;;;;;9175817;19;20010;-69
2022/11/26 09:57:28;;;;;;;61.17;22.27;;;7.20;89.20;;;;;;9176016;19;20018;-69
2022/11/26 10:00:38;;;;;;;59.50;21.27;;;7.20;89.20;;;;;;9176547;19;20017;-68
2022/11/26 10:03:42;;;;;;;66.97;23.58;;;7.30;89.30;;;;;;9178301;19;20036;-69
2022/11/26 10:06:53;;;;;;;72.82;23.17;;;7.30;89.20;;;;;;9177972;19;20021;-69
2022/11/26 10:10:05;;;;;;;62.28;22.73;;;7.40;89.30;;;;;;9176310;19;20471;-69
2022/11/26 10:13:18;;;;;;;65.85;24.30;;;7.40;89.30;;;;;;9176147;19;20014;-69
2022/11/26 10:16:28;;;;;;;58.92;22.15;;;7.40;89.30;;;;;;9175311;19;20022;-69
2022/11/26 10:19:43;;;;;;;65.68;24.02;;;7.40;89.30;;;;;;9176059;19;20014;-69
2022/11/26 10:22:52;;;;;;;59.20;22.92;;;7.50;89.40;;;;;;9170563;19;20011;-69
2022/11/26 10:26:08;;;;;;;65.97;24.90;;;7.50;89.40;;;;;;9175870;19;20031;-69
2022/11/26 10:29:22;;;;;;;63.22;23.10;;;7.50;89.40;;;;;;9173269;19;20371;-69
2022/11/26 10:32:35;;;;;;;64.95;22.98;;;7.60;89.40;;;;;;9176989;19;20350;-69
2022/11/26 10:35:43;;;;;;;62.42;22.15;;;7.60;89.40;;;;;;9176932;19;20031;-69
2022/11/26 10:38:47;;;;;;;61.15;22.90;;;7.70;90.00;;;;;;9175710;19;20059;-69
2022/11/26 10:41:51;;;;;;;75.75;24.08;;;7.70;89.50;;;;;;9176457;19;20017;-69
2022/11/26 10:44:54;;;;;;;;;;;7.80;89.50;;;;;;9176805;19;20018;-69
2022/11/26 10:48:17;;;;;;;82.38;25.67;;;7.80;89.50;;;;;;9173416;19;19922;-69
2022/11/26 10:51:31;;;;;;;58.50;19.88;;;7.90;89.40;;;;;;9173986;19;20006;-69
2022/11/26 10:54:37;;;;;;;71.13;21.70;;;8.00;89.50;;;;;;9175697;19;20483;-69
2022/11/26 10:57:48;;;;;;;59.80;20.05;;;8.00;89.50;;;;;;9173782;19;20108;-69
2022/11/26 11:00:59;;;;;;;57.22;20.45;;;8.00;89.50;;;;;;9174745;19;20025;-69
2022/11/26 11:04:19;;;;;;;47.35;19.35;;;8.10;89.60;;;;;;9175739;19;20019;-70
2022/11/26 11:07:42;;;;;;;67.57;18.50;;;8.10;89.60;;;;;;9173057;19;20015;-69
2022/11/26 11:10:55;;;;;;;52.92;19.20;;;8.10;89.60;;;;;;9173822;19;20026;-69
2022/11/26 11:13:59;;;;;;;57.70;20.65;;;8.20;89.70;;;;;;9176114;19;20038;-69
2022/11/26 11:17:03;;;;;;;;;;;8.30;89.70;;;;;;9175985;19;20025;-69
2022/11/26 11:20:33;;;;;;;54.60;21.95;;;8.30;89.70;;;;;;9175505;19;19933;-70
2022/11/26 11:23:39;;;;;;;56.28;20.38;;;8.40;89.70;;;;;;9167051;19;20017;-69
2022/11/26 11:27:02;;;;;;;54.50;19.80;;;8.40;89.60;;;;;;9182751;19;20357;-69
2022/11/26 11:30:08;;;;;;;54.75;19.85;;;8.40;89.60;;;;;;9183480;19;20010;-69
2022/11/26 11:33:21;;;;;;;53.47;20.10;;;8.50;89.70;;;;;;9181815;19;20396;-70
2022/11/26 11:36:30;;;;;;;53.03;18.73;;;8.50;89.80;;;;;;9183256;19;20735;-69
2022/11/26 11:39:38;;;;;;;51.13;17.27;;;8.60;89.70;;;;;;9183294;19;20372;-69
2022/11/26 11:42:45;;;;;;;54.08;18.02;;;8.60;89.70;;;;;;9182490;19;20454;-69
2022/11/26 11:45:57;;;;;;;44.88;17.83;;;8.70;89.80;;;;;;9181807;19;20509;-69
2022/11/26 11:49:15;;;;;;;54.97;18.95;;;8.70;89.80;;;;;;9178319;19;20090;-69
2022/11/26 11:52:34;;;;;;;45.78;17.40;;;8.80;89.90;;;;;;9181314;19;20019;-69
2022/11/26 11:55:56;;;;;;;45.28;16.50;;;8.80;89.90;;;;;;9181785;19;20014;-69
2022/11/26 11:59:36;;;;;;;67.20;17.10;;;8.90;90.20;;;;;;9182981;19;20379;-69
2022/11/26 12:02:56;;;;;;;41.00;14.10;;;9.00;90.00;;;;;;9180290;19;20021;-69
2022/11/26 12:06:12;;;;;;;57.55;14.18;;;9.00;89.90;;;;;;9180877;19;20006;-69
2022/11/26 12:09:27;;;;;;;38.60;13.18;;;9.00;89.90;;;;;;9179966;19;20011;-69
2022/11/26 12:12:36;;;;;;;32.83;12.75;;;9.10;89.90;;;;;;9182007;19;20025;-69
2022/11/26 12:15:46;;;;;;;39.03;12.38;;;9.10;89.90;;;;;;9181546;19;20021;-69
2022/11/26 12:18:58;;;;;;;32.42;12.48;;;9.20;89.90;;;;;;9181009;19;20029;-70
2022/11/26 12:22:07;;;;;;;43.65;12.18;;;9.20;90.00;;;;;;9180201;19;20030;-69
2022/11/26 12:25:21;;;;;;;41.10;11.25;;;9.30;90.00;;;;;;9177835;19;20026;-70
2022/11/26 12:28:28;;;;;;;36.45;12.70;;;9.30;90.00;;;;;;9179212;19;20007;-70
2022/11/26 12:31:37;;;;;;;39.20;11.80;;;9.30;89.90;;;;;;9181826;19;20010;-69
2022/11/26 12:34:48;;;;;;;30.48;11.88;;;9.40;90.00;;;;;;9178476;19;20022;-69
2022/11/26 12:37:57;;;;;;;43.08;11.13;;;9.40;90.00;;;;;;9180478;19;20007;-69
2022/11/26 12:41:06;;;;;;;37.42;11.40;;;9.50;90.00;;;;;;9180563;19;20007;-69
2022/11/26 12:44:18;;;;;;;35.38;11.60;;;9.50;90.00;;;;;;9179198;19;20017;-69
2022/11/26 12:47:27;;;;;;;46.10;11.23;;;9.50;90.00;;;;;;9177572;19;20031;-69
2022/11/26 12:50:38;;;;;;;41.17;10.63;;;9.50;90.00;;;;;;9177909;19;20010;-69
2022/11/26 12:53:48;;;;;;;43.00;11.30;;;9.60;90.00;;;;;;9174121;19;20018;-69
2022/11/26 12:57:00;;;;;;;51.22;10.43;;;9.60;90.00;;;;;;9176749;19;20018;-70
2022/11/26 13:00:09;;;;;;;38.30;9.88;;;9.60;90.00;;;;;;9176071;19;20057;-69
2022/11/26 13:03:17;;;;;;;41.53;10.48;;;9.70;90.00;;;;;;9176908;19;20023;-68
2022/11/26 13:06:34;;;;;;;36.42;10.30;;;9.70;90.00;;;;;;9178074;19;20018;-68
2022/11/26 13:09:56;;;;;;;30.23;10.40;;;9.70;90.00;;;;;;9170075;19;20062;-69
2022/11/26 13:13:07;;;;;;;32.00;9.80;;;9.70;90.30;;;;;;9178741;19;20010;-69
2022/11/26 13:16:20;;;;;;;32.33;10.57;;;9.80;90.00;;;;;;9177003;19;20054;-69
2022/11/26 13:19:33;;;;;;;33.33;11.40;;;9.80;90.00;;;;;;9177534;19;20032;-69
2022/11/26 13:22:53;;;;;;;31.75;11.27;;;9.80;89.90;;;;;;9173054;19;20014;-69
2022/11/26 13:26:10;;;;;;;32.88;9.48;;;9.80;89.90;;;;;;9176473;19;20364;-69
2022/11/26 13:29:32;;;;;;;26.33;10.13;;;9.80;89.90;;;;;;9176650;19;20026;-69
2022/11/26 13:33:05;;;;;;;30.27;9.60;;;9.90;89.90;;;;;;9174242;19;20015;-69
2022/11/26 13:36:39;;;;;;;35.83;9.60;;;9.90;89.90;;;;;;9177437;19;20029;-69
2022/11/26 13:40:20;;;;;;;27.67;9.63;;;9.90;90.20;;;;;;9173235;19;20022;-69
2022/11/26 13:44:03;;;;;;;37.45;9.30;;;9.90;89.90;;;;;;9175868;19;20010;-69
2022/11/26 13:47:13;;;;;;;32.35;9.13;;;9.90;89.90;;;;;;9176026;19;20464;-68
2022/11/26 13:50:23;;;;;;;34.38;9.65;;;9.90;89.90;;;;;;9178172;19;20506;-69
2022/11/26 13:53:30;;;;;;;33.08;11.18;;;9.90;89.80;;;;;;9171363;19;20025;-69
2022/11/26 13:56:36;;;;;;;33.88;10.73;;;9.90;89.80;;;;;;9176729;19;20365;-69
2022/11/26 13:59:47;;;;;;;38.45;9.80;;;10.00;89.90;;;;;;9174784;19;20018;-69
2022/11/26 14:02:52;;;;;;;31.85;9.15;;;10.00;89.90;;;;;;9176111;19;20379;-69
2022/11/26 14:06:09;;;;;;;27.13;9.20;;;10.00;89.80;;;;;;9176128;19;20010;-69
2022/11/26 14:09:55;;;;;;;39.92;10.65;;;10.00;89.80;;;;;;9173009;19;20123;-68
2022/11/26 14:13:15;;;;;;;32.47;9.30;;;10.00;89.80;;;;;;9173746;19;20458;-68
2022/11/26 14:16:19;;;;;;;29.85;7.95;;;10.00;89.80;;;;;;9174592;19;20377;-68
2022/11/26 14:20:05;;;;;;;25.00;8.65;;;10.00;89.80;;;;;;9173195;19;20081;-68
2022/11/26 14:23:39;;;;;;;30.15;8.40;;;10.00;89.70;;;;;;9169015;19;20052;-68
2022/11/26 14:26:42;;;;;;;24.65;9.07;;;10.00;89.70;;;;;;9176586;19;20022;-68
2022/11/26 14:29:54;;;;;;;28.27;9.30;;;10.00;89.70;;;;;;9173077;19;20022;-68
2022/11/26 14:33:12;;;;;;;38.67;8.60;;;10.00;89.70;;;;;;9176977;19;20022;-68
2022/11/26 14:36:24;;;;;;;41.72;9.20;;;10.00;89.70;;;;;;9177214;19;20016;-68
2022/11/26 14:39:30;;;;;;;24.45;8.18;;;10.00;89.70;;;;;;9177019;19;20014;-68
2022/11/26 14:42:34;;;;;;;32.97;9.05;;;10.00;89.70;;;;;;9176604;19;20007;-68
2022/11/26 14:45:40;;;;;;;32.80;8.57;;;10.00;89.60;;;;;;9175392;19;20370;-68
2022/11/26 14:48:46;;;;;;;27.77;8.05;;;10.00;89.60;;;;;;9167413;19;20056;-68
2022/11/26 14:51:53;;;;;;;28.73;9.20;;;10.00;89.60;;;;;;9167708;19;20026;-68
2022/11/26 14:55:01;;;;;;;28.70;8.43;;;10.00;89.60;;;;;;9164819;19;20082;-68
2022/11/26 14:58:10;;;;;;;30.02;8.27;;;10.00;89.60;;;;;;9164703;19;20037;-68
2022/11/26 15:01:22;;;;;;;39.72;10.05;;;10.00;89.60;;;;;;9172376;19;20046;-68
2022/11/26 15:04:30;;;;;;;27.08;7.88;;;10.00;89.60;;;;;;9171314;19;20086;-68
2022/11/26 15:07:34;;;;;;;26.63;8.00;;;10.00;89.60;;;;;;9173471;19;20018;-68
2022/11/26 15:10:39;;;;;;;;;;;10.00;89.60;;;;;;9172548;19;20022;-69
2022/11/26 15:13:46;;;;;;;31.08;7.32;;;9.90;89.50;;;;;;9172639;19;19927;-68
2022/11/26 15:17:00;;;;;;;27.15;7.70;;;9.90;89.40;;;;;;9174308;19;20383;-68
2022/11/26 15:20:08;;;;;;;24.88;8.52;;;9.90;89.50;;;;;;9172571;19;20025;-69
2022/11/26 15:23:14;;;;;;;23.83;7.93;;;9.90;89.50;;;;;;9164349;19;20016;-68
2022/11/26 15:26:23;;;;;;;32.80;8.57;;;9.90;89.50;;;;;;9175036;19;20018;-68
2022/11/26 15:29:33;;;;;;;30.67;6.88;;;9.90;89.50;;;;;;9173205;19;20014;-69
2022/11/26 15:32:39;;;;;;;22.52;6.88;;;9.90;89.50;;;;;;9173934;19;20019;-69
2022/11/26 15:35:42;;;;;;;24.38;7.05;;;9.80;89.50;;;;;;9172984;19;20014;-68
2022/11/26 15:39:05;;;;;;;25.52;7.43;;;9.80;89.40;;;;;;9173465;19;20019;-68
2022/11/26 15:42:27;;;;;;;27.83;6.68;;;9.80;90.00;;;;;;9161714;19;20018;-69
2022/11/26 15:45:38;;;;;;;32.13;7.80;;;9.80;89.40;;;;;;9166048;19;20018;-69
2022/11/26 15:48:50;;;;;;;37.13;8.82;;;9.80;89.40;;;;;;9112118;19;20026;-69
2022/11/26 15:52:00;;;;;;;30.27;8.50;;;9.80;89.40;;;;;;9171208;19;20014;-70
2022/11/26 15:55:08;;;;;;;33.85;7.40;;;9.80;89.40;;;;;;9172541;19;20006;-69
2022/11/26 15:58:21;;;;;;;24.60;7.90;;;9.70;89.40;;;;;;9168544;19;20047;-68
2022/11/26 16:01:31;;;;;;;25.35;7.80;;;9.70;90.00;;;;;;9170841;19;20011;-69
2022/11/26 16:04:44;;;;;;;27.63;8.18;;;9.70;89.30;;;;;;9172850;19;20762;-69
2022/11/26 16:07:58;;;;;;;32.50;8.05;;;9.70;89.40;;;;;;9163898;19;20029;-69
2022/11/26 16:11:08;;;;;;;30.02;7.07;;;9.60;89.40;;;;;;9163024;19;20546;-69
2022/11/26 16:14:30;;;;;;;20.98;6.90;;;9.60;89.40;;;;;;9161980;19;20018;-70
2022/11/26 16:17:34;;;;;;;25.20;6.60;;;9.60;89.40;;;;;;9165030;19;20030;-69
2022/11/26 16:20:40;;;;;;;25.38;6.53;;;9.60;89.40;;;;;;9165280;19;20014;-68
2022/11/26 16:23:44;;;;;;;33.75;6.13;;;9.60;89.40;;;;;;9166868;19;20023;-68